Time;durP1;ratioP1;P1;durP2;ratioP2;P2;SDS_P1;SDS_P2;PMS_P1;PMS_P2;Temp;Humidity;BMP_temperature;BMP_pressure;BME280_temperature;BME280_humidity;BME280_pressure;Samples;Min_cycle;Max_cycle;Signal;HPM_P1;HPM_P2
2022/11/08 00:01:33;;;;;;;15.95;3.75;;;12.40;99.90;;;;;;4966941;28;20051;-77
2022/11/08 00:04:05;;;;;;;6.65;3.25;;;12.40;99.90;;;;;;4966347;28;20050;-80
2022/11/08 00:14:47;;;;;;;7.00;2.90;;;12.40;99.90;;;;;;4967310;28;20137;-77
2022/11/08 00:17:15;;;;;;;7.00;3.22;;;12.40;99.90;;;;;;4966743;28;20747;-78
2022/11/08 00:19:41;;;;;;;6.63;2.67;;;12.40;99.90;;;;;;4981303;28;20042;-78
2022/11/08 00:22:08;;;;;;;9.20;3.03;;;12.40;99.90;;;;;;4986952;28;20121;-77
2022/11/08 00:24:33;;;;;;;3.95;3.08;;;12.30;99.90;;;;;;4986713;28;20073;-78
2022/11/08 00:27:01;;;;;;;4.47;2.78;;;12.40;99.90;;;;;;4967034;28;20081;-78
2022/11/08 00:29:27;;;;;;;6.60;3.95;;;12.40;99.90;;;;;;4967969;28;20062;-77
2022/11/08 00:31:52;;;;;;;9.13;3.92;;;12.40;99.90;;;;;;4967065;28;20367;-78
2022/11/08 00:34:18;;;;;;;4.80;3.03;;;12.40;99.90;;;;;;4964942;28;20042;-78
2022/11/08 00:36:44;;;;;;;8.77;3.53;;;12.40;99.90;;;;;;4967002;28;20100;-77
2022/11/08 00:39:10;;;;;;;11.60;3.65;;;12.40;99.90;;;;;;4966684;28;20517;-78
2022/11/08 00:41:35;;;;;;;5.30;2.47;;;12.40;99.90;;;;;;4967061;28;20074;-77
2022/11/08 00:44:01;;;;;;;8.45;3.30;;;12.40;99.90;;;;;;4965061;28;20074;-77
2022/11/08 00:46:26;;;;;;;5.80;3.15;;;12.40;99.90;;;;;;4967468;28;20038;-78
2022/11/08 00:48:52;;;;;;;5.82;3.25;;;12.40;99.90;;;;;;4978674;28;20089;-77
2022/11/08 00:51:18;;;;;;;3.95;2.88;;;12.50;99.90;;;;;;4986108;28;20050;-79
2022/11/08 00:53:43;;;;;;;4.03;2.00;;;12.40;99.90;;;;;;4986087;28;20121;-77
2022/11/08 00:56:11;;;;;;;5.75;3.25;;;12.40;99.90;;;;;;4985620;28;20200;-78
2022/11/08 00:58:37;;;;;;;3.20;2.78;;;12.40;99.90;;;;;;4986094;28;20096;-78
2022/11/08 01:01:14;;;;;;;5.75;2.63;;;12.40;99.90;;;;;;4985855;28;20631;-76
2022/11/08 01:03:41;;;;;;;6.85;3.03;;;12.40;99.90;;;;;;4985211;28;20042;-78
2022/11/08 01:06:10;;;;;;;7.40;3.40;;;12.40;99.90;;;;;;4986362;28;20048;-77
2022/11/08 01:08:36;;;;;;;5.15;2.20;;;12.40;99.90;;;;;;4986005;28;20073;-77
2022/11/08 01:11:05;;;;;;;3.35;2.40;;;12.30;99.90;;;;;;4985196;28;20428;-79
2022/11/08 01:13:31;;;;;;;6.53;2.80;;;12.30;99.90;;;;;;4985942;28;20497;-78
2022/11/08 01:15:56;;;;;;;4.90;3.58;;;12.30;99.90;;;;;;4985914;28;20041;-78
2022/11/08 01:18:22;;;;;;;3.75;2.20;;;12.30;99.90;;;;;;4984729;28;20503;-78
2022/11/08 01:20:48;;;;;;;5.28;2.97;;;12.30;99.90;;;;;;4985877;28;20046;-77
2022/11/08 01:23:16;;;;;;;6.63;2.50;;;12.30;99.90;;;;;;4985882;28;20053;-78
2022/11/08 01:25:44;;;;;;;4.60;2.53;;;12.30;99.90;;;;;;4986222;28;20057;-77
2022/11/08 01:28:10;;;;;;;4.35;3.13;;;12.30;99.90;;;;;;4985571;28;20129;-77
2022/11/08 01:30:37;;;;;;;5.63;2.70;;;12.20;99.90;;;;;;4985669;28;20043;-78
2022/11/08 01:33:04;;;;;;;5.22;2.65;;;12.20;99.90;;;;;;4985363;28;20053;-79
2022/11/08 01:35:31;;;;;;;4.72;2.00;;;12.20;99.90;;;;;;4984732;28;20043;-77
2022/11/08 01:37:58;;;;;;;9.60;2.90;;;12.20;99.90;;;;;;4985951;28;20131;-78
2022/11/08 01:40:24;;;;;;;3.70;2.30;;;12.20;99.90;;;;;;4976036;28;20078;-79
2022/11/08 01:42:50;;;;;;;9.85;2.85;;;12.20;99.90;;;;;;4966155;28;20136;-79
2022/11/08 01:45:54;;;;;;;4.38;2.08;;;12.20;99.90;;;;;;4965678;28;20109;-78
2022/11/08 01:48:19;;;;;;;5.85;2.40;;;12.10;99.90;;;;;;4964633;28;20050;-77
2022/11/08 01:50:45;;;;;;;8.98;2.47;;;12.10;99.90;;;;;;4966553;28;20435;-77
2022/11/08 01:53:11;;;;;;;9.23;3.25;;;12.10;99.90;;;;;;4964756;28;20571;-77
2022/11/08 01:55:37;;;;;;;4.03;2.58;;;12.10;99.90;;;;;;4965499;28;20167;-78
2022/11/08 01:58:11;;;;;;;4.80;2.30;;;12.10;99.90;;;;;;4967660;28;20051;-79
2022/11/08 02:00:38;;;;;;;3.45;2.20;;;12.00;99.90;;;;;;4969955;28;20494;-78
2022/11/08 02:03:08;;;;;;;3.83;2.13;;;12.00;99.90;;;;;;4952292;28;20544;-78
2022/11/08 02:05:34;;;;;;;5.75;2.90;;;12.00;99.90;;;;;;5084915;22;20119;-76
2022/11/08 02:08:05;;;;;;;2.42;1.73;;;12.00;99.90;;;;;;5007100;28;20046;-79
2022/11/08 02:10:37;;;;;;;4.00;2.13;;;11.90;99.90;;;;;;5007204;28;20037;-77
2022/11/08 02:13:06;;;;;;;4.72;2.15;;;11.90;99.90;;;;;;5006740;28;20054;-77
2022/11/08 02:15:32;;;;;;;3.50;1.90;;;11.90;99.90;;;;;;5007014;28;20132;-77
2022/11/08 02:17:58;;;;;;;7.55;2.70;;;11.80;99.90;;;;;;5005461;28;20294;-77
2022/11/08 02:20:24;;;;;;;3.05;2.00;;;11.70;99.90;;;;;;5005971;28;20495;-78
2022/11/08 02:22:57;;;;;;;6.72;2.72;;;11.70;99.90;;;;;;5006670;28;20530;-77
2022/11/08 02:25:23;;;;;;;5.47;2.33;;;11.70;99.90;;;;;;5006543;28;20074;-78
2022/11/08 02:27:49;;;;;;;7.07;2.60;;;11.60;99.90;;;;;;5006845;28;20099;-77
2022/11/08 02:30:14;;;;;;;7.72;3.33;;;11.60;99.90;;;;;;5007060;28;20069;-78
2022/11/08 02:32:41;;;;;;;3.88;1.85;;;11.60;99.90;;;;;;5007390;28;20038;-76
2022/11/08 02:35:16;;;;;;;3.25;2.58;;;11.50;99.90;;;;;;5005760;28;20065;-78
2022/11/08 02:37:42;;;;;;;4.63;2.35;;;11.50;99.90;;;;;;5005941;28;20057;-77
2022/11/08 02:40:08;;;;;;;5.70;2.97;;;11.50;99.90;;;;;;5006756;28;20084;-79
2022/11/08 02:42:37;;;;;;;5.10;3.40;;;11.40;99.90;;;;;;5006353;28;20400;-78
2022/11/08 02:45:05;;;;;;;3.67;2.03;;;11.40;99.90;;;;;;5005373;28;20070;-77
2022/11/08 02:47:30;;;;;;;4.25;2.25;;;11.40;99.90;;;;;;5005709;28;20060;-77
2022/11/08 02:49:56;;;;;;;12.23;3.08;;;11.40;99.90;;;;;;5006800;28;20038;-76
2022/11/08 02:52:21;;;;;;;7.22;1.73;;;11.40;99.90;;;;;;5006529;28;20060;-76
2022/11/08 02:54:47;;;;;;;11.82;3.03;;;11.30;99.90;;;;;;5006996;28;20045;-77
2022/11/08 02:57:13;;;;;;;3.72;2.13;;;11.30;99.90;;;;;;5005271;28;20042;-76
2022/11/08 02:59:38;;;;;;;7.45;2.20;;;11.30;99.90;;;;;;5006646;28;20046;-78
2022/11/08 03:02:04;;;;;;;6.55;1.98;;;11.20;99.90;;;;;;5006768;28;20042;-77
2022/11/08 03:04:29;;;;;;;4.40;2.75;;;11.20;99.90;;;;;;5005445;28;20136;-78
2022/11/08 03:06:55;;;;;;;4.13;2.55;;;11.20;99.90;;;;;;5006103;28;20117;-76
2022/11/08 03:09:21;;;;;;;11.23;2.75;;;11.10;99.90;;;;;;5005265;28;20037;-77
2022/11/08 03:11:46;;;;;;;6.15;3.15;;;11.10;99.90;;;;;;5006532;28;20057;-77
2022/11/08 03:14:12;;;;;;;6.00;2.20;;;11.10;99.90;;;;;;5005310;28;20779;-76
2022/11/08 03:16:37;;;;;;;5.38;2.80;;;11.20;99.90;;;;;;5006211;28;20060;-78
2022/11/08 03:19:03;;;;;;;3.95;2.25;;;11.10;99.90;;;;;;5005241;28;20125;-76
2022/11/08 03:21:28;;;;;;;2.65;2.13;;;11.10;99.90;;;;;;5005290;28;20033;-80
2022/11/08 03:23:54;;;;;;;3.00;2.10;;;11.10;99.90;;;;;;5007297;28;20046;-77
2022/11/08 03:26:20;;;;;;;7.57;2.78;;;11.10;99.90;;;;;;5004650;28;20078;-76
2022/11/08 03:28:45;;;;;;;7.47;2.83;;;11.10;99.90;;;;;;5006480;28;20050;-77
2022/11/08 03:31:11;;;;;;;11.63;2.20;;;11.10;99.90;;;;;;5005783;28;20492;-77
2022/11/08 03:33:36;;;;;;;4.88;2.33;;;11.00;99.90;;;;;;5005102;28;20046;-77
2022/11/08 03:36:02;;;;;;;5.55;2.40;;;11.00;99.90;;;;;;5006278;28;20496;-76
2022/11/08 03:38:28;;;;;;;9.25;2.85;;;11.00;99.90;;;;;;4988652;28;20119;-77
2022/11/08 03:40:53;;;;;;;5.53;2.33;;;11.00;99.90;;;;;;5006586;28;20042;-77
2022/11/08 03:43:19;;;;;;;5.28;2.22;;;11.00;99.90;;;;;;5005572;28;20050;-77
2022/11/08 03:45:45;;;;;;;3.55;2.63;;;11.00;99.90;;;;;;5004294;28;20096;-78
2022/11/08 03:48:11;;;;;;;3.38;2.50;;;10.90;99.90;;;;;;5004923;28;20120;-76
2022/11/08 03:50:36;;;;;;;4.75;2.75;;;10.90;99.90;;;;;;5005858;28;20142;-76
2022/11/08 03:53:02;;;;;;;2.70;2.20;;;10.90;99.90;;;;;;5005783;28;20046;-77
2022/11/08 03:55:28;;;;;;;2.60;2.30;;;10.90;99.90;;;;;;5005959;28;20056;-76
2022/11/08 03:57:54;;;;;;;6.40;2.55;;;10.80;99.90;;;;;;5004466;28;20037;-78
2022/11/08 04:00:22;;;;;;;5.05;2.65;;;10.80;99.90;;;;;;5005662;28;20096;-77
2022/11/08 04:02:48;;;;;;;7.35;2.55;;;10.80;99.90;;;;;;5004288;28;20033;-78
2022/11/08 04:05:15;;;;;;;2.92;1.83;;;10.80;99.90;;;;;;5004915;28;20049;-77
2022/11/08 04:07:40;;;;;;;4.15;2.42;;;10.80;99.90;;;;;;5005941;28;20049;-77
2022/11/08 04:10:08;;;;;;;3.83;1.83;;;10.80;99.90;;;;;;5005108;28;20103;-77
2022/11/08 04:15:22;;;;;;;5.57;2.28;;;10.80;99.90;;;;;;5004689;28;20045;-78
2022/11/08 04:23:24;;;;;;;8.00;3.17;;;10.80;99.90;;;;;;5004998;28;20045;-77
2022/11/08 04:25:57;;;;;;;4.13;2.80;;;10.70;99.90;;;;;;5004957;28;20127;-77
2022/11/08 04:28:25;;;;;;;3.13;2.13;;;10.70;99.90;;;;;;5005346;28;20447;-77
2022/11/08 04:30:55;;;;;;;3.25;1.73;;;10.70;99.90;;;;;;5005395;28;20453;-78
2022/11/08 04:33:21;;;;;;;4.47;2.65;;;10.70;99.90;;;;;;5003561;28;20038;-77
2022/11/08 04:35:47;;;;;;;6.45;2.85;;;10.70;99.90;;;;;;5005033;28;20389;-77
2022/11/08 04:38:13;;;;;;;5.50;2.28;;;10.70;99.90;;;;;;5004401;28;20073;-78
2022/11/08 04:40:39;;;;;;;10.13;2.92;;;10.70;99.90;;;;;;5003760;28;20102;-77
2022/11/08 04:43:04;;;;;;;4.03;1.60;;;10.70;99.90;;;;;;5004486;28;20034;-76
2022/11/08 04:45:30;;;;;;;7.65;2.83;;;10.70;99.90;;;;;;5003695;28;20528;-77
2022/11/08 04:47:55;;;;;;;5.43;2.55;;;10.70;99.90;;;;;;5004349;28;20034;-77
2022/11/08 04:50:21;;;;;;;5.43;3.17;;;10.70;99.90;;;;;;5003222;28;20049;-76
2022/11/08 04:52:51;;;;;;;4.03;2.17;;;10.70;99.90;;;;;;5004667;28;20533;-78
2022/11/08 04:55:18;;;;;;;5.55;2.45;;;10.70;99.90;;;;;;5004604;28;20124;-76
2022/11/08 04:57:43;;;;;;;5.20;2.72;;;10.60;99.90;;;;;;5004593;28;20049;-76
2022/11/08 05:00:11;;;;;;;13.95;3.22;;;10.70;99.90;;;;;;5019142;28;20695;-76
2022/11/08 05:02:36;;;;;;;15.45;2.67;;;10.70;99.90;;;;;;5004002;28;20459;-77
2022/11/08 05:05:02;;;;;;;6.07;1.88;;;10.70;99.90;;;;;;5003697;28;20050;-78
2022/11/08 05:07:28;;;;;;;5.63;2.42;;;10.60;99.90;;;;;;5004657;28;20046;-78
2022/11/08 05:09:54;;;;;;;4.68;2.72;;;10.60;99.90;;;;;;5005342;28;20559;-76
2022/11/08 05:12:20;;;;;;;6.82;3.08;;;10.60;99.90;;;;;;5003871;28;20048;-77
2022/11/08 05:14:46;;;;;;;10.43;3.55;;;10.60;99.90;;;;;;5004221;28;20046;-77
2022/11/08 05:17:11;;;;;;;3.92;2.10;;;10.60;99.90;;;;;;5004182;28;20046;-77
2022/11/08 05:25:06;;;;;;;4.13;2.40;;;10.60;99.90;;;;;;5004204;28;20108;-77
2022/11/08 05:27:33;;;;;;;3.70;1.75;;;10.60;99.90;;;;;;5004058;28;20077;-78
2022/11/08 05:29:59;;;;;;;3.40;2.20;;;10.50;99.90;;;;;;5004177;28;20096;-78
2022/11/08 05:32:24;;;;;;;6.40;2.03;;;10.50;99.90;;;;;;5004027;28;20496;-77
2022/11/08 05:34:50;;;;;;;5.50;2.75;;;10.50;99.90;;;;;;5001446;28;20136;-77
2022/11/08 05:37:16;;;;;;;4.03;2.60;;;10.50;99.90;;;;;;5004334;28;20049;-76
2022/11/08 05:39:41;;;;;;;4.53;2.95;;;10.50;99.90;;;;;;5002655;28;20046;-77
2022/11/08 05:42:07;;;;;;;3.90;2.30;;;10.50;99.90;;;;;;5003885;28;20042;-78
2022/11/08 05:44:33;;;;;;;4.53;2.72;;;10.50;99.90;;;;;;5001020;28;20073;-78
2022/11/08 05:46:58;;;;;;;7.70;2.35;;;10.50;99.90;;;;;;5001817;28;20038;-79
2022/11/08 05:49:24;;;;;;;4.57;2.03;;;10.50;99.90;;;;;;5012069;28;20456;-76
2022/11/08 05:51:49;;;;;;;4.05;1.73;;;10.50;99.90;;;;;;5005277;28;20480;-77
2022/11/08 05:54:15;;;;;;;6.60;2.30;;;10.50;99.90;;;;;;5014971;28;20046;-79
2022/11/08 05:56:41;;;;;;;5.70;2.95;;;10.50;99.90;;;;;;5004143;28;20046;-76
2022/11/08 05:59:06;;;;;;;5.13;2.45;;;10.50;99.90;;;;;;5003329;28;20042;-77
2022/11/08 06:01:32;;;;;;;5.80;3.10;;;10.50;99.90;;;;;;5003843;28;20034;-77
2022/11/08 06:03:58;;;;;;;4.32;1.90;;;10.50;99.90;;;;;;5000064;28;20108;-77
2022/11/08 06:06:24;;;;;;;4.97;2.67;;;10.50;99.90;;;;;;5005361;28;20074;-78
2022/11/08 06:08:50;;;;;;;2.53;1.88;;;10.50;99.90;;;;;;5005424;28;20045;-78
2022/11/08 06:11:17;;;;;;;4.82;2.85;;;10.50;99.90;;;;;;5008413;28;20034;-79
2022/11/08 06:13:43;;;;;;;7.53;2.47;;;10.50;99.90;;;;;;5001107;28;20074;-78
2022/11/08 06:16:11;;;;;;;3.65;2.17;;;10.50;99.90;;;;;;5001839;28;20069;-78
2022/11/08 06:18:37;;;;;;;5.30;2.08;;;10.50;99.90;;;;;;4993440;28;20038;-79
2022/11/08 06:21:05;;;;;;;3.92;2.45;;;10.50;99.90;;;;;;5003801;28;20073;-78
2022/11/08 06:23:31;;;;;;;3.40;2.70;;;10.50;99.90;;;;;;5001827;28;20053;-78
2022/11/08 06:25:57;;;;;;;2.75;2.53;;;10.50;99.90;;;;;;4999171;28;20042;-78
2022/11/08 06:28:23;;;;;;;6.35;2.55;;;10.50;99.90;;;;;;4990647;28;20042;-78
2022/11/08 06:30:49;;;;;;;5.10;2.83;;;10.50;99.90;;;;;;5002574;28;20482;-80
2022/11/08 06:33:15;;;;;;;8.10;2.10;;;10.60;99.90;;;;;;4999176;28;20120;-80
2022/11/08 06:35:40;;;;;;;4.65;2.13;;;10.60;99.90;;;;;;5000002;28;20038;-78
2022/11/08 06:38:06;;;;;;;3.38;1.65;;;10.60;99.90;;;;;;5000436;28;20049;-80
2022/11/08 06:40:32;;;;;;;2.55;1.50;;;10.60;99.90;;;;;;4989145;28;20520;-79
2022/11/08 06:42:58;;;;;;;5.22;2.70;;;10.60;99.90;;;;;;4985326;28;20046;-78
2022/11/08 06:45:25;;;;;;;3.65;1.98;;;10.60;99.90;;;;;;4995092;28;20475;-80
2022/11/08 06:47:57;;;;;;;2.08;1.98;;;10.60;99.90;;;;;;5000746;28;20061;-77
2022/11/08 06:50:22;;;;;;;12.98;2.40;;;10.60;99.90;;;;;;4991831;28;20105;-79
2022/11/08 06:52:58;;;;;;;5.00;2.80;;;10.60;99.90;;;;;;5003001;28;20564;-79
2022/11/08 06:55:23;;;;;;;3.78;2.47;;;10.60;99.90;;;;;;5019666;28;20041;-78
2022/11/08 06:57:49;;;;;;;3.10;2.42;;;10.60;99.90;;;;;;5017005;28;20037;-81
2022/11/08 07:00:16;;;;;;;5.22;2.78;;;10.60;99.90;;;;;;5009913;28;20053;-84
2022/11/08 07:02:43;;;;;;;3.13;1.98;;;10.60;99.90;;;;;;5008912;28;20418;-78
2022/11/08 07:05:09;;;;;;;2.22;2.03;;;10.60;99.90;;;;;;5005886;28;20420;-79
2022/11/08 07:07:35;;;;;;;5.43;2.17;;;10.50;99.90;;;;;;5006166;28;20045;-78
2022/11/08 07:10:01;;;;;;;5.75;2.95;;;10.50;99.90;;;;;;5002025;28;20048;-79
2022/11/08 07:12:26;;;;;;;3.90;1.40;;;10.60;99.90;;;;;;5004513;28;20500;-80
2022/11/08 07:14:52;;;;;;;5.70;2.20;;;10.60;99.90;;;;;;5004529;28;20416;-79
2022/11/08 07:17:18;;;;;;;4.60;2.72;;;10.50;99.90;;;;;;5003884;28;20443;-78
2022/11/08 07:19:43;;;;;;;4.45;2.70;;;10.60;99.90;;;;;;4995257;28;20121;-78
2022/11/08 07:22:09;;;;;;;8.73;1.70;;;10.50;99.90;;;;;;4984934;28;20046;-79
2022/11/08 07:24:34;;;;;;;6.03;1.92;;;10.60;99.90;;;;;;4993422;28;20045;-78
2022/11/08 07:27:00;;;;;;;1.83;1.73;;;10.60;99.90;;;;;;5005274;28;20108;-78
2022/11/08 07:29:26;;;;;;;2.53;1.83;;;10.60;99.90;;;;;;5006035;28;20044;-79
2022/11/08 07:31:51;;;;;;;2.47;1.77;;;10.50;99.90;;;;;;5005944;28;20048;-78
2022/11/08 07:34:17;;;;;;;2.55;2.05;;;10.60;99.90;;;;;;5003728;28;20492;-79
2022/11/08 07:36:42;;;;;;;3.45;1.65;;;10.50;99.90;;;;;;5005553;28;20404;-79
2022/11/08 07:39:08;;;;;;;4.63;2.45;;;10.60;99.90;;;;;;5004490;28;20415;-78
2022/11/08 07:41:34;;;;;;;2.80;1.63;;;10.60;99.90;;;;;;5005567;28;20381;-78
2022/11/08 07:43:59;;;;;;;4.85;1.77;;;10.60;99.90;;;;;;5004236;28;20053;-79
2022/11/08 07:46:25;;;;;;;4.00;2.33;;;10.60;99.90;;;;;;5006150;28;20042;-80
2022/11/08 07:48:50;;;;;;;2.85;1.77;;;10.60;99.90;;;;;;5003975;28;20057;-78
2022/11/08 07:51:16;;;;;;;2.55;1.80;;;10.60;99.90;;;;;;4993322;28;20038;-79
2022/11/08 07:53:43;;;;;;;1.80;1.25;;;10.60;99.90;;;;;;5004157;28;20416;-78
2022/11/08 07:56:09;;;;;;;2.10;1.73;;;10.60;99.90;;;;;;5004332;28;20614;-79
2022/11/08 07:58:34;;;;;;;3.75;2.10;;;10.60;99.90;;;;;;5021265;28;20120;-79
2022/11/08 08:01:02;;;;;;;8.15;1.63;;;10.60;99.90;;;;;;5014996;28;20531;-80
2022/11/08 08:03:28;;;;;;;2.13;1.80;;;10.60;99.90;;;;;;5025412;28;20452;-78
2022/11/08 08:05:53;;;;;;;2.08;1.67;;;10.60;99.90;;;;;;4995592;28;20140;-79
2022/11/08 08:08:19;;;;;;;3.53;2.25;;;10.70;99.90;;;;;;5005198;28;20046;-79
2022/11/08 08:10:45;;;;;;;2.55;1.70;;;10.60;99.90;;;;;;5005349;28;20460;-82
2022/11/08 08:13:11;;;;;;;9.23;2.50;;;10.70;99.90;;;;;;5005187;28;20041;-81
2022/11/08 08:15:36;;;;;;;2.90;2.15;;;10.70;99.90;;;;;;5005967;28;20121;-79
2022/11/08 08:18:03;;;;;;;4.05;1.95;;;10.70;99.90;;;;;;5002357;28;20719;-80
2022/11/08 08:20:29;;;;;;;2.38;1.92;;;10.80;99.90;;;;;;5004391;28;20538;-82
2022/11/08 08:22:56;;;;;;;2.25;1.60;;;10.80;99.90;;;;;;5003038;28;20038;-82
2022/11/08 08:25:22;;;;;;;3.10;1.63;;;10.80;99.90;;;;;;5002806;28;20160;-82
2022/11/08 08:27:49;;;;;;;4.25;1.55;;;10.80;99.90;;;;;;5004735;28;20504;-80
2022/11/08 08:30:16;;;;;;;4.57;2.35;;;10.80;99.90;;;;;;5003999;28;20112;-79
2022/11/08 08:32:43;;;;;;;2.25;1.77;;;10.90;99.90;;;;;;5003580;28;20095;-80
2022/11/08 08:35:09;;;;;;;4.03;2.38;;;10.90;99.90;;;;;;5002207;28;20113;-79
2022/11/08 08:37:34;;;;;;;2.05;1.70;;;10.90;99.90;;;;;;5004517;28;20089;-80
2022/11/08 08:40:00;;;;;;;2.17;1.58;;;11.00;99.90;;;;;;5002539;28;20458;-80
2022/11/08 08:42:26;;;;;;;2.92;1.55;;;11.10;99.90;;;;;;5005157;28;20431;-82
2022/11/08 08:44:51;;;;;;;1.73;1.63;;;11.00;99.90;;;;;;5004206;28;20547;-79
2022/11/08 08:47:17;;;;;;;3.42;2.38;;;11.10;99.90;;;;;;5002699;28;20699;-79
2022/11/08 08:49:42;;;;;;;3.08;2.78;;;11.10;99.90;;;;;;5003967;28;20551;-79
2022/11/08 08:52:08;;;;;;;4.05;1.70;;;11.10;99.90;;;;;;5003946;28;20046;-82
2022/11/08 08:54:33;;;;;;;2.03;1.70;;;11.20;99.90;;;;;;5003636;28;20048;-80
2022/11/08 08:56:59;;;;;;;3.03;2.13;;;11.20;99.90;;;;;;4986249;28;20049;-80
2022/11/08 08:59:26;;;;;;;2.28;1.52;;;11.20;99.90;;;;;;5003852;28;20125;-80
2022/11/08 09:01:52;;;;;;;6.85;2.28;;;11.30;99.90;;;;;;5002454;28;20607;-80
2022/11/08 09:04:18;;;;;;;2.10;1.27;;;11.30;99.90;;;;;;5002543;28;20338;-80
2022/11/08 09:06:43;;;;;;;2.92;2.63;;;11.30;99.90;;;;;;5003670;28;20107;-81
2022/11/08 09:09:09;;;;;;;3.17;1.92;;;11.30;99.90;;;;;;5002647;28;20503;-79
2022/11/08 09:11:34;;;;;;;4.50;1.77;;;11.30;99.90;;;;;;5003422;28;20091;-79
2022/11/08 09:14:00;;;;;;;3.05;1.65;;;11.30;99.90;;;;;;5003380;28;20038;-79
2022/11/08 09:16:25;;;;;;;2.50;2.17;;;11.40;99.90;;;;;;5002557;28;20050;-82
2022/11/08 09:18:51;;;;;;;2.88;1.88;;;11.40;99.90;;;;;;5002842;28;20073;-80
2022/11/08 09:21:17;;;;;;;4.07;1.98;;;11.40;99.90;;;;;;5003286;28;20045;-79
2022/11/08 09:23:42;;;;;;;2.38;1.67;;;11.40;99.90;;;;;;5003354;28;20088;-80
2022/11/08 09:26:09;;;;;;;3.47;1.90;;;11.50;99.90;;;;;;4990494;28;20211;-80
2022/11/08 09:28:35;;;;;;;2.50;1.83;;;11.50;99.90;;;;;;4983568;28;20429;-82
2022/11/08 09:31:04;;;;;;;3.00;2.00;;;11.50;99.90;;;;;;4983667;28;20581;-81
2022/11/08 09:33:29;;;;;;;7.18;2.00;;;11.50;99.90;;;;;;4983163;28;20058;-81
2022/11/08 09:35:55;;;;;;;5.75;2.35;;;11.50;99.90;;;;;;4984146;28;20031;-79
2022/11/08 09:38:21;;;;;;;2.75;2.10;;;11.60;99.90;;;;;;4983208;28;20120;-79
2022/11/08 09:40:52;;;;;;;3.20;2.00;;;11.60;99.90;;;;;;4983600;28;20042;-80
2022/11/08 09:43:38;;;;;;;4.35;1.55;;;11.60;99.90;;;;;;4986542;28;20202;-79
2022/11/08 09:46:12;;;;;;;3.78;1.45;;;11.70;99.90;;;;;;4996683;28;20121;-82
2022/11/08 09:48:43;;;;;;;1.88;1.75;;;11.70;99.90;;;;;;4988522;28;20033;-82
2022/11/08 09:51:16;;;;;;;3.40;1.58;;;11.70;99.90;;;;;;4990945;28;20041;-80
2022/11/08 09:53:52;;;;;;;3.33;1.85;;;11.70;99.90;;;;;;4993585;28;20077;-79
2022/11/08 09:56:24;;;;;;;1.98;1.80;;;11.70;99.90;;;;;;4996243;28;20038;-80
2022/11/08 09:58:53;;;;;;;;;;;11.80;99.90;;;;;;5000734;28;20053;-81
2022/11/08 10:01:20;;;;;;;2.08;1.35;;;11.80;99.90;;;;;;5001093;28;19948;-80
2022/11/08 10:03:52;;;;;;;2.53;1.63;;;11.80;99.90;;;;;;5002836;28;20141;-81
2022/11/08 10:06:24;;;;;;;5.00;1.20;;;11.80;99.90;;;;;;4998888;28;20624;-80
2022/11/08 10:09:18;;;;;;;1.30;1.20;;;11.80;99.90;;;;;;5003467;28;20050;-80
2022/11/08 10:12:05;;;;;;;3.90;1.50;;;11.80;99.90;;;;;;4999496;28;20514;-80
2022/11/08 10:14:51;;;;;;;4.05;1.38;;;11.80;99.90;;;;;;5003200;28;20050;-80
2022/11/08 10:17:32;;;;;;;3.30;1.38;;;11.80;99.90;;;;;;4993405;28;20038;-79
2022/11/08 10:20:04;;;;;;;2.60;1.70;;;11.90;99.90;;;;;;4987055;28;20047;-79
2022/11/08 10:22:36;;;;;;;1.90;1.55;;;11.90;99.90;;;;;;4994655;28;20038;-79
2022/11/08 10:25:21;;;;;;;1.67;1.55;;;11.90;99.90;;;;;;4996806;28;20050;-81
2022/11/08 10:27:50;;;;;;;2.10;1.55;;;11.90;99.90;;;;;;5004311;28;20045;-81
2022/11/08 10:30:21;;;;;;;3.33;1.35;;;11.90;99.90;;;;;;4995576;28;20038;-80
2022/11/08 10:32:52;;;;;;;3.83;1.70;;;11.90;99.90;;;;;;5005462;28;20046;-82
2022/11/08 10:35:25;;;;;;;3.72;1.27;;;11.90;99.90;;;;;;5006519;28;20042;-82
2022/11/08 10:37:54;;;;;;;1.80;1.65;;;11.90;99.90;;;;;;5006601;28;20034;-80
2022/11/08 10:40:32;;;;;;;2.80;1.27;;;11.90;99.90;;;;;;5002914;28;20065;-79
2022/11/08 10:43:21;;;;;;;6.82;1.52;;;11.90;99.90;;;;;;5005800;28;20392;-79
2022/11/08 10:45:47;;;;;;;2.83;2.15;;;11.90;99.90;;;;;;5006216;28;20215;-81
2022/11/08 10:48:12;;;;;;;2.30;1.73;;;12.00;99.90;;;;;;4999342;28;20273;-80
2022/11/08 10:50:47;;;;;;;2.60;1.80;;;12.00;99.90;;;;;;5007724;28;20100;-79
2022/11/08 10:53:24;;;;;;;1.52;1.15;;;12.00;99.90;;;;;;5007110;28;20038;-81
2022/11/08 10:55:57;;;;;;;1.65;1.15;;;12.10;99.90;;;;;;5007286;28;20046;-80
2022/11/08 10:58:38;;;;;;;2.67;2.20;;;12.10;99.90;;;;;;5005629;28;20100;-80
2022/11/08 11:01:32;;;;;;;4.80;1.23;;;12.10;99.90;;;;;;5005544;28;20046;-80
2022/11/08 11:04:23;;;;;;;2.35;1.63;;;12.20;99.90;;;;;;4996823;28;20054;-80
2022/11/08 11:06:49;;;;;;;1.73;1.30;;;12.20;99.90;;;;;;5006307;28;20045;-82
2022/11/08 11:09:20;;;;;;;1.67;1.40;;;12.20;99.90;;;;;;5006069;28;20038;-80
2022/11/08 11:12:06;;;;;;;3.87;1.13;;;12.30;99.90;;;;;;5006044;28;20481;-79
2022/11/08 11:14:32;;;;;;;1.70;1.60;;;12.30;99.90;;;;;;4995715;28;20087;-77
2022/11/08 11:17:02;;;;;;;10.23;1.58;;;12.40;99.90;;;;;;5002069;28;20038;-79
2022/11/08 11:19:29;;;;;;;3.25;1.67;;;12.40;99.90;;;;;;4992286;28;21560;-78
2022/11/08 11:22:03;;;;;;;2.78;1.65;;;12.40;99.90;;;;;;4987563;28;20046;-79
2022/11/08 11:24:29;;;;;;;1.70;1.45;;;12.40;99.90;;;;;;4993852;28;20273;-79
2022/11/08 11:26:55;;;;;;;1.85;1.33;;;12.40;99.90;;;;;;4997744;28;20137;-78
2022/11/08 11:29:25;;;;;;;1.42;1.33;;;12.50;99.90;;;;;;5005230;28;20112;-79
2022/11/08 11:31:52;;;;;;;2.47;1.20;;;12.50;99.90;;;;;;5005141;28;20565;-78
2022/11/08 11:34:18;;;;;;;2.22;1.48;;;12.50;99.90;;;;;;5005988;28;20091;-78
2022/11/08 11:36:51;;;;;;;1.50;1.25;;;12.50;99.90;;;;;;5004739;28;20395;-77
2022/11/08 11:39:50;;;;;;;3.92;2.20;;;12.60;99.90;;;;;;4997520;28;20504;-79
2022/11/08 11:42:42;;;;;;;2.70;1.50;;;12.60;99.90;;;;;;5003395;28;20080;-77
2022/11/08 11:45:16;;;;;;;3.95;1.50;;;12.60;99.90;;;;;;4998265;28;20081;-83
2022/11/08 11:47:56;;;;;;;1.98;1.33;;;12.70;99.90;;;;;;5000402;28;20044;-80
2022/11/08 11:50:31;;;;;;;5.57;1.60;;;12.70;99.90;;;;;;5003803;28;20045;-80
2022/11/08 11:52:59;;;;;;;3.30;1.98;;;12.70;99.90;;;;;;5005583;28;20173;-80
2022/11/08 11:56:02;;;;;;;4.88;2.05;;;12.80;99.90;;;;;;4993165;28;20046;-81
2022/11/08 11:58:54;;;;;;;2.42;1.80;;;12.80;99.90;;;;;;4985964;28;20050;-82
2022/11/08 12:01:47;;;;;;;4.28;1.92;;;12.90;99.90;;;;;;5005492;28;20407;-81
2022/11/08 12:04:25;;;;;;;2.60;1.42;;;12.90;99.90;;;;;;4986721;28;20058;-82
2022/11/08 12:07:33;;;;;;;2.92;1.45;;;12.90;99.90;;;;;;4999164;28;20086;-77
2022/11/08 12:10:07;;;;;;;1.80;1.15;;;13.00;99.90;;;;;;4980854;28;20054;-82
2022/11/08 12:12:36;;;;;;;4.70;3.25;;;13.00;99.90;;;;;;5000104;28;20336;-78
2022/11/08 12:15:40;;;;;;;1.98;1.30;;;13.00;99.90;;;;;;5004308;28;20068;-79
2022/11/08 12:18:33;;;;;;;4.93;1.77;;;13.00;99.90;;;;;;5004310;28;20333;-77
2022/11/08 12:21:13;;;;;;;1.13;1.02;;;13.00;99.90;;;;;;5003832;28;20041;-79
2022/11/08 12:23:57;;;;;;;5.40;1.20;;;13.00;99.90;;;;;;5005501;28;20044;-78
2022/11/08 12:26:55;;;;;;;4.18;1.25;;;13.00;99.90;;;;;;5003755;28;20125;-78
2022/11/08 12:29:29;;;;;;;1.00;0.82;;;13.00;99.90;;;;;;5003734;28;20392;-78
2022/11/08 12:32:17;;;;;;;0.88;0.80;;;13.00;99.90;;;;;;4993850;28;20045;-77
2022/11/08 12:35:07;;;;;;;1.52;1.20;;;13.00;99.90;;;;;;4998436;28;20038;-77
2022/11/08 12:37:38;;;;;;;2.58;1.35;;;13.10;99.90;;;;;;5003247;28;20050;-77
2022/11/08 12:40:12;;;;;;;2.90;1.00;;;13.10;99.90;;;;;;4997355;28;20046;-78
2022/11/08 12:42:57;;;;;;;1.70;0.75;;;13.10;99.90;;;;;;4994159;28;20436;-78
2022/11/08 12:45:41;;;;;;;2.42;1.42;;;13.10;99.90;;;;;;4997140;28;20050;-78
2022/11/08 12:48:19;;;;;;;1.10;0.90;;;13.10;99.90;;;;;;4996708;28;20125;-78
2022/11/08 12:51:16;;;;;;;1.80;1.38;;;13.10;99.90;;;;;;4998611;28;20045;-78
2022/11/08 12:54:16;;;;;;;1.92;1.45;;;13.20;99.90;;;;;;4993297;28;20052;-77
2022/11/08 12:56:54;;;;;;;3.10;1.30;;;13.20;99.90;;;;;;5001555;28;20037;-78
2022/11/08 12:59:27;;;;;;;4.15;1.98;;;13.20;99.90;;;;;;4995503;28;20045;-76
2022/11/08 13:01:54;;;;;;;1.73;1.60;;;13.20;99.90;;;;;;4996499;28;20125;-79
2022/11/08 13:04:38;;;;;;;2.38;1.13;;;13.30;99.90;;;;;;4987374;28;20054;-77
2022/11/08 13:07:21;;;;;;;1.70;1.27;;;13.20;99.90;;;;;;4983143;28;20088;-74
2022/11/08 13:09:46;;;;;;;;;;;13.20;99.90;;;;;;4985075;28;20046;-75
2022/11/08 13:12:18;;;;;;;3.85;1.77;;;13.20;99.90;;;;;;4984677;28;19925;-76
2022/11/08 13:14:44;;;;;;;1.33;1.15;;;13.20;99.90;;;;;;4983854;28;20508;-76
2022/11/08 13:17:25;;;;;;;1.48;0.95;;;13.20;99.90;;;;;;4982499;28;20042;-75
2022/11/08 13:19:52;;;;;;;2.90;1.15;;;13.30;99.90;;;;;;4983996;28;20133;-76
2022/11/08 13:22:32;;;;;;;1.65;1.27;;;13.20;99.90;;;;;;4983285;28;20078;-76